sensor_id;sensor_type;location;lat;lon;timestamp;P1;durP1;ratioP1;P2;durP2;ratioP2
757;SDS011;363;48.764;9.172;2023-05-02T00:01:48;6.70;;;5.97;;
757;SDS011;363;48.764;9.172;2023-05-02T00:04:14;7.37;;;6.67;;
757;SDS011;363;48.764;9.172;2023-05-02T00:06:40;7.03;;;6.43;;
757;SDS011;363;48.764;9.172;2023-05-02T00:09:06;6.60;;;6.00;;
757;SDS011;363;48.764;9.172;2023-05-02T00:11:32;7.22;;;6.53;;
757;SDS011;363;48.764;9.172;2023-05-02T00:13:58;6.73;;;6.13;;
757;SDS011;363;48.764;9.172;2023-05-02T00:16:23;6.53;;;5.93;;
757;SDS011;363;48.764;9.172;2023-05-02T00:18:49;7.33;;;6.63;;
757;SDS011;363;48.764;9.172;2023-05-02T00:21:14;7.30;;;6.60;;
757;SDS011;363;48.764;9.172;2023-05-02T00:23:40;6.90;;;6.30;;
757;SDS011;363;48.764;9.172;2023-05-02T00:26:09;7.33;;;6.33;;
757;SDS011;363;48.764;9.172;2023-05-02T00:28:34;7.15;;;6.35;;
757;SDS011;363;48.764;9.172;2023-05-02T00:31:00;7.03;;;6.33;;
757;SDS011;363;48.764;9.172;2023-05-02T00:33:26;7.70;;;6.03;;
757;SDS011;363;48.764;9.172;2023-05-02T00:35:51;7.67;;;7.00;;
757;SDS011;363;48.764;9.172;2023-05-02T00:38:17;7.03;;;6.33;;
757;SDS011;363;48.764;9.172;2023-05-02T00:40:43;6.83;;;6.23;;
757;SDS011;363;48.764;9.172;2023-05-02T00:43:10;6.63;;;6.03;;
757;SDS011;363;48.764;9.172;2023-05-02T00:45:36;8.05;;;7.25;;
757;SDS011;363;48.764;9.172;2023-05-02T00:48:05;7.70;;;6.90;;
757;SDS011;363;48.764;9.172;2023-05-02T00:50:32;7.13;;;6.53;;
757;SDS011;363;48.764;9.172;2023-05-02T00:53:01;8.00;;;7.20;;
757;SDS011;363;48.764;9.172;2023-05-02T00:55:28;7.82;;;7.18;;
757;SDS011;363;48.764;9.172;2023-05-02T00:57:55;7.50;;;6.80;;
757;SDS011;363;48.764;9.172;2023-05-02T01:00:20;7.10;;;6.40;;
757;SDS011;363;48.764;9.172;2023-05-02T01:02:52;7.20;;;6.18;;
757;SDS011;363;48.764;9.172;2023-05-02T01:05:37;7.35;;;6.75;;
757;SDS011;363;48.764;9.172;2023-05-02T01:08:24;7.00;;;6.40;;
757;SDS011;363;48.764;9.172;2023-05-02T01:13:40;6.95;;;6.30;;
757;SDS011;363;48.764;9.172;2023-05-02T01:16:07;7.05;;;6.30;;
757;SDS011;363;48.764;9.172;2023-05-02T01:18:35;7.20;;;6.07;;
757;SDS011;363;48.764;9.172;2023-05-02T01:21:08;7.45;;;6.65;;
757;SDS011;363;48.764;9.172;2023-05-02T01:29:23;7.07;;;6.40;;
757;SDS011;363;48.764;9.172;2023-05-02T01:31:51;7.40;;;6.80;;
757;SDS011;363;48.764;9.172;2023-05-02T01:34:20;6.97;;;6.40;;
757;SDS011;363;48.764;9.172;2023-05-02T01:36:47;7.18;;;6.57;;
757;SDS011;363;48.764;9.172;2023-05-02T01:39:17;7.07;;;6.47;;
757;SDS011;363;48.764;9.172;2023-05-02T01:41:45;6.40;;;5.80;;
757;SDS011;363;48.764;9.172;2023-05-02T01:44:15;6.70;;;6.10;;
757;SDS011;363;48.764;9.172;2023-05-02T01:46:42;7.65;;;6.13;;
757;SDS011;363;48.764;9.172;2023-05-02T01:49:10;7.43;;;6.82;;
757;SDS011;363;48.764;9.172;2023-05-02T01:51:36;7.33;;;6.70;;
757;SDS011;363;48.764;9.172;2023-05-02T01:54:08;6.72;;;6.13;;
757;SDS011;363;48.764;9.172;2023-05-02T01:56:37;7.30;;;6.38;;
757;SDS011;363;48.764;9.172;2023-05-02T01:59:04;6.63;;;6.03;;
757;SDS011;363;48.764;9.172;2023-05-02T02:01:33;7.70;;;7.00;;
757;SDS011;363;48.764;9.172;2023-05-02T02:04:00;7.65;;;6.63;;
757;SDS011;363;48.764;9.172;2023-05-02T02:06:28;7.32;;;6.45;;
757;SDS011;363;48.764;9.172;2023-05-02T02:08:54;7.73;;;7.03;;
757;SDS011;363;48.764;9.172;2023-05-02T02:11:34;8.47;;;6.90;;
757;SDS011;363;48.764;9.172;2023-05-02T02:14:08;8.20;;;6.40;;
757;SDS011;363;48.764;9.172;2023-05-02T02:16:41;7.18;;;6.55;;
757;SDS011;363;48.764;9.172;2023-05-02T02:19:08;6.65;;;6.05;;
757;SDS011;363;48.764;9.172;2023-05-02T02:21:36;7.32;;;6.72;;
757;SDS011;363;48.764;9.172;2023-05-02T02:24:05;7.32;;;6.70;;
757;SDS011;363;48.764;9.172;2023-05-02T02:26:31;7.72;;;7.03;;
757;SDS011;363;48.764;9.172;2023-05-02T02:28:58;7.70;;;7.00;;
757;SDS011;363;48.764;9.172;2023-05-02T02:31:29;7.13;;;6.45;;
757;SDS011;363;48.764;9.172;2023-05-02T02:33:59;7.78;;;7.10;;
757;SDS011;363;48.764;9.172;2023-05-02T02:36:30;7.50;;;6.80;;
757;SDS011;363;48.764;9.172;2023-05-02T02:42:08;7.35;;;6.75;;
757;SDS011;363;48.764;9.172;2023-05-02T02:47:40;7.90;;;7.10;;
757;SDS011;363;48.764;9.172;2023-05-02T02:55:42;8.07;;;7.32;;
757;SDS011;363;48.764;9.172;2023-05-02T03:00:44;7.40;;;6.70;;
757;SDS011;363;48.764;9.172;2023-05-02T03:03:11;8.20;;;7.50;;
757;SDS011;363;48.764;9.172;2023-05-02T03:05:39;11.73;;;7.03;;
757;SDS011;363;48.764;9.172;2023-05-02T03:08:06;8.07;;;7.32;;
757;SDS011;363;48.764;9.172;2023-05-02T03:10:32;7.23;;;6.63;;
757;SDS011;363;48.764;9.172;2023-05-02T03:12:57;8.17;;;7.37;;
757;SDS011;363;48.764;9.172;2023-05-02T03:15:35;12.90;;;7.20;;
757;SDS011;363;48.764;9.172;2023-05-02T03:18:23;7.82;;;7.13;;
757;SDS011;363;48.764;9.172;2023-05-02T03:20:48;9.67;;;7.50;;
757;SDS011;363;48.764;9.172;2023-05-02T03:23:14;7.83;;;7.13;;
757;SDS011;363;48.764;9.172;2023-05-02T03:25:39;8.70;;;7.90;;
757;SDS011;363;48.764;9.172;2023-05-02T03:28:05;7.80;;;7.20;;
757;SDS011;363;48.764;9.172;2023-05-02T03:30:31;7.43;;;6.83;;
757;SDS011;363;48.764;9.172;2023-05-02T03:32:56;8.43;;;7.63;;
757;SDS011;363;48.764;9.172;2023-05-02T03:35:22;9.03;;;7.40;;
757;SDS011;363;48.764;9.172;2023-05-02T03:37:47;7.33;;;6.63;;
757;SDS011;363;48.764;9.172;2023-05-02T03:40:14;7.55;;;6.85;;
757;SDS011;363;48.764;9.172;2023-05-02T03:42:40;7.40;;;6.80;;
757;SDS011;363;48.764;9.172;2023-05-02T03:45:06;7.90;;;7.10;;
757;SDS011;363;48.764;9.172;2023-05-02T03:47:32;8.60;;;7.82;;
757;SDS011;363;48.764;9.172;2023-05-02T03:49:58;7.50;;;6.80;;
757;SDS011;363;48.764;9.172;2023-05-02T03:52:24;7.45;;;6.85;;
757;SDS011;363;48.764;9.172;2023-05-02T03:54:50;7.17;;;6.47;;
757;SDS011;363;48.764;9.172;2023-05-02T03:57:16;9.00;;;7.20;;
757;SDS011;363;48.764;9.172;2023-05-02T03:59:42;7.38;;;6.68;;
757;SDS011;363;48.764;9.172;2023-05-02T04:02:10;8.40;;;7.50;;
757;SDS011;363;48.764;9.172;2023-05-02T04:04:35;7.63;;;6.65;;
757;SDS011;363;48.764;9.172;2023-05-02T04:07:02;8.45;;;7.65;;
757;SDS011;363;48.764;9.172;2023-05-02T04:09:28;8.25;;;7.50;;
757;SDS011;363;48.764;9.172;2023-05-02T04:11:53;7.97;;;7.17;;
757;SDS011;363;48.764;9.172;2023-05-02T04:14:19;7.93;;;7.22;;
757;SDS011;363;48.764;9.172;2023-05-02T04:16:48;7.60;;;6.90;;
757;SDS011;363;48.764;9.172;2023-05-02T04:19:15;7.97;;;7.28;;
757;SDS011;363;48.764;9.172;2023-05-02T04:21:42;8.77;;;7.88;;
757;SDS011;363;48.764;9.172;2023-05-02T04:24:08;8.15;;;7.38;;
757;SDS011;363;48.764;9.172;2023-05-02T04:26:34;8.30;;;7.50;;
757;SDS011;363;48.764;9.172;2023-05-02T04:28:59;8.00;;;7.30;;
757;SDS011;363;48.764;9.172;2023-05-02T04:31:25;8.18;;;7.38;;
757;SDS011;363;48.764;9.172;2023-05-02T04:33:51;8.53;;;7.73;;
757;SDS011;363;48.764;9.172;2023-05-02T04:36:17;9.43;;;7.50;;
757;SDS011;363;48.764;9.172;2023-05-02T04:38:45;7.70;;;7.00;;
757;SDS011;363;48.764;9.172;2023-05-02T04:41:11;7.03;;;6.43;;
757;SDS011;363;48.764;9.172;2023-05-02T04:43:37;7.13;;;6.53;;
757;SDS011;363;48.764;9.172;2023-05-02T04:46:02;7.83;;;7.13;;
757;SDS011;363;48.764;9.172;2023-05-02T04:48:28;8.10;;;7.30;;
757;SDS011;363;48.764;9.172;2023-05-02T04:50:54;7.80;;;7.10;;
757;SDS011;363;48.764;9.172;2023-05-02T04:53:22;8.83;;;7.93;;
757;SDS011;363;48.764;9.172;2023-05-02T04:55:48;10.55;;;9.55;;
757;SDS011;363;48.764;9.172;2023-05-02T04:58:14;7.97;;;7.17;;
757;SDS011;363;48.764;9.172;2023-05-02T05:00:39;8.70;;;7.90;;
757;SDS011;363;48.764;9.172;2023-05-02T05:03:05;8.20;;;7.50;;
757;SDS011;363;48.764;9.172;2023-05-02T05:05:31;8.60;;;7.80;;
757;SDS011;363;48.764;9.172;2023-05-02T05:07:56;9.40;;;8.50;;
757;SDS011;363;48.764;9.172;2023-05-02T05:10:22;9.00;;;7.60;;
757;SDS011;363;48.764;9.172;2023-05-02T05:12:48;11.67;;;10.70;;
757;SDS011;363;48.764;9.172;2023-05-02T05:15:13;8.57;;;7.47;;
757;SDS011;363;48.764;9.172;2023-05-02T05:17:40;10.65;;;7.70;;
757;SDS011;363;48.764;9.172;2023-05-02T05:20:06;10.90;;;8.07;;
757;SDS011;363;48.764;9.172;2023-05-02T05:22:37;8.05;;;7.30;;
757;SDS011;363;48.764;9.172;2023-05-02T05:25:03;9.10;;;8.30;;
757;SDS011;363;48.764;9.172;2023-05-02T05:27:29;8.07;;;7.27;;
757;SDS011;363;48.764;9.172;2023-05-02T05:29:54;8.33;;;7.63;;
757;SDS011;363;48.764;9.172;2023-05-02T05:32:20;8.40;;;7.60;;
757;SDS011;363;48.764;9.172;2023-05-02T05:34:46;8.63;;;7.73;;
757;SDS011;363;48.764;9.172;2023-05-02T05:37:16;8.80;;;7.95;;
757;SDS011;363;48.764;9.172;2023-05-02T05:39:42;11.85;;;8.95;;
757;SDS011;363;48.764;9.172;2023-05-02T05:42:08;8.30;;;7.50;;
757;SDS011;363;48.764;9.172;2023-05-02T05:44:34;11.33;;;7.50;;
757;SDS011;363;48.764;9.172;2023-05-02T05:47:03;8.98;;;7.97;;
757;SDS011;363;48.764;9.172;2023-05-02T05:49:28;7.27;;;6.63;;
757;SDS011;363;48.764;9.172;2023-05-02T05:51:54;7.70;;;6.95;;
757;SDS011;363;48.764;9.172;2023-05-02T05:54:20;8.90;;;7.60;;
757;SDS011;363;48.764;9.172;2023-05-02T05:56:46;8.10;;;7.40;;
757;SDS011;363;48.764;9.172;2023-05-02T05:59:12;9.10;;;8.20;;
757;SDS011;363;48.764;9.172;2023-05-02T06:01:37;8.50;;;7.70;;
757;SDS011;363;48.764;9.172;2023-05-02T06:04:04;9.50;;;8.43;;
757;SDS011;363;48.764;9.172;2023-05-02T06:06:30;9.82;;;8.80;;
757;SDS011;363;48.764;9.172;2023-05-02T06:08:56;9.48;;;8.48;;
757;SDS011;363;48.764;9.172;2023-05-02T06:11:22;9.93;;;8.93;;
757;SDS011;363;48.764;9.172;2023-05-02T06:13:48;9.52;;;8.70;;
757;SDS011;363;48.764;9.172;2023-05-02T06:16:18;9.85;;;8.95;;
757;SDS011;363;48.764;9.172;2023-05-02T06:18:45;9.20;;;8.30;;
757;SDS011;363;48.764;9.172;2023-05-02T06:21:11;11.20;;;10.20;;
757;SDS011;363;48.764;9.172;2023-05-02T06:23:36;10.43;;;9.43;;
757;SDS011;363;48.764;9.172;2023-05-02T06:26:03;9.20;;;8.40;;
757;SDS011;363;48.764;9.172;2023-05-02T06:28:29;10.98;;;9.75;;
757;SDS011;363;48.764;9.172;2023-05-02T06:30:56;11.93;;;10.82;;
757;SDS011;363;48.764;9.172;2023-05-02T06:33:26;13.20;;;11.90;;
757;SDS011;363;48.764;9.172;2023-05-02T06:35:53;11.60;;;10.45;;
757;SDS011;363;48.764;9.172;2023-05-02T06:38:18;11.40;;;10.30;;
757;SDS011;363;48.764;9.172;2023-05-02T06:40:44;13.03;;;11.73;;
757;SDS011;363;48.764;9.172;2023-05-02T06:43:10;14.03;;;11.60;;
757;SDS011;363;48.764;9.172;2023-05-02T06:45:37;13.35;;;12.15;;
757;SDS011;363;48.764;9.172;2023-05-02T06:48:03;12.90;;;11.70;;
757;SDS011;363;48.764;9.172;2023-05-02T06:50:29;12.60;;;11.50;;
757;SDS011;363;48.764;9.172;2023-05-02T06:52:54;14.27;;;12.70;;
757;SDS011;363;48.764;9.172;2023-05-02T06:55:20;12.80;;;11.23;;
757;SDS011;363;48.764;9.172;2023-05-02T06:57:47;14.50;;;13.10;;
757;SDS011;363;48.764;9.172;2023-05-02T07:00:15;14.63;;;13.23;;
757;SDS011;363;48.764;9.172;2023-05-02T07:02:41;15.35;;;14.00;;
757;SDS011;363;48.764;9.172;2023-05-02T07:05:08;13.82;;;12.32;;
757;SDS011;363;48.764;9.172;2023-05-02T07:07:33;14.17;;;12.87;;
757;SDS011;363;48.764;9.172;2023-05-02T07:09:59;14.13;;;12.83;;
757;SDS011;363;48.764;9.172;2023-05-02T07:12:25;14.97;;;13.57;;
757;SDS011;363;48.764;9.172;2023-05-02T07:14:51;16.30;;;14.10;;
757;SDS011;363;48.764;9.172;2023-05-02T07:17:16;15.40;;;13.90;;
757;SDS011;363;48.764;9.172;2023-05-02T07:19:42;15.37;;;13.97;;
757;SDS011;363;48.764;9.172;2023-05-02T07:22:08;15.50;;;14.00;;
757;SDS011;363;48.764;9.172;2023-05-02T07:24:33;15.57;;;13.80;;
757;SDS011;363;48.764;9.172;2023-05-02T07:26:59;15.70;;;14.20;;
757;SDS011;363;48.764;9.172;2023-05-02T07:29:27;15.60;;;14.00;;
757;SDS011;363;48.764;9.172;2023-05-02T07:31:53;15.63;;;14.17;;
757;SDS011;363;48.764;9.172;2023-05-02T07:34:18;19.10;;;15.80;;
757;SDS011;363;48.764;9.172;2023-05-02T07:36:44;17.83;;;16.03;;
757;SDS011;363;48.764;9.172;2023-05-02T07:39:09;16.87;;;15.20;;
757;SDS011;363;48.764;9.172;2023-05-02T07:41:35;20.27;;;18.37;;
757;SDS011;363;48.764;9.172;2023-05-02T07:44:01;17.80;;;16.03;;
757;SDS011;363;48.764;9.172;2023-05-02T07:46:26;17.60;;;16.00;;
757;SDS011;363;48.764;9.172;2023-05-02T07:48:52;18.37;;;15.90;;
757;SDS011;363;48.764;9.172;2023-05-02T07:51:18;18.63;;;16.70;;
757;SDS011;363;48.764;9.172;2023-05-02T07:53:45;17.55;;;15.85;;
757;SDS011;363;48.764;9.172;2023-05-02T07:56:11;20.00;;;17.13;;
757;SDS011;363;48.764;9.172;2023-05-02T07:58:37;17.00;;;15.23;;
757;SDS011;363;48.764;9.172;2023-05-02T08:01:02;16.60;;;15.00;;
757;SDS011;363;48.764;9.172;2023-05-02T08:03:29;20.40;;;18.30;;
757;SDS011;363;48.764;9.172;2023-05-02T08:05:54;17.88;;;16.20;;
757;SDS011;363;48.764;9.172;2023-05-02T08:08:20;19.00;;;17.10;;
757;SDS011;363;48.764;9.172;2023-05-02T08:10:46;18.37;;;16.47;;
757;SDS011;363;48.764;9.172;2023-05-02T08:13:11;18.97;;;16.97;;
757;SDS011;363;48.764;9.172;2023-05-02T08:15:37;21.30;;;19.17;;
757;SDS011;363;48.764;9.172;2023-05-02T08:18:03;22.93;;;20.73;;
757;SDS011;363;48.764;9.172;2023-05-02T08:20:28;21.23;;;19.20;;
757;SDS011;363;48.764;9.172;2023-05-02T08:22:54;21.50;;;19.30;;
757;SDS011;363;48.764;9.172;2023-05-02T08:25:19;21.30;;;19.20;;
757;SDS011;363;48.764;9.172;2023-05-02T08:27:45;21.53;;;19.33;;
757;SDS011;363;48.764;9.172;2023-05-02T08:30:11;22.00;;;18.60;;
757;SDS011;363;48.764;9.172;2023-05-02T08:32:37;21.17;;;19.08;;
757;SDS011;363;48.764;9.172;2023-05-02T08:35:03;19.70;;;17.67;;
757;SDS011;363;48.764;9.172;2023-05-02T08:37:28;20.83;;;18.60;;
757;SDS011;363;48.764;9.172;2023-05-02T08:39:55;19.00;;;17.02;;
757;SDS011;363;48.764;9.172;2023-05-02T08:42:20;20.03;;;18.00;;
757;SDS011;363;48.764;9.172;2023-05-02T08:44:47;20.85;;;18.67;;
757;SDS011;363;48.764;9.172;2023-05-02T08:47:13;22.52;;;19.88;;
757;SDS011;363;48.764;9.172;2023-05-02T08:49:40;20.33;;;18.40;;
757;SDS011;363;48.764;9.172;2023-05-02T08:52:08;19.10;;;17.20;;
757;SDS011;363;48.764;9.172;2023-05-02T08:54:36;22.08;;;19.88;;
757;SDS011;363;48.764;9.172;2023-05-02T08:57:03;20.77;;;18.67;;
757;SDS011;363;48.764;9.172;2023-05-02T08:59:29;22.27;;;20.20;;
757;SDS011;363;48.764;9.172;2023-05-02T09:01:57;21.10;;;18.90;;
757;SDS011;363;48.764;9.172;2023-05-02T09:04:30;20.58;;;18.58;;
757;SDS011;363;48.764;9.172;2023-05-02T09:06:58;19.17;;;17.42;;
757;SDS011;363;48.764;9.172;2023-05-02T09:09:23;18.93;;;17.13;;
757;SDS011;363;48.764;9.172;2023-05-02T09:11:50;19.58;;;17.38;;
757;SDS011;363;48.764;9.172;2023-05-02T09:14:17;20.25;;;18.30;;
757;SDS011;363;48.764;9.172;2023-05-02T09:16:42;20.10;;;18.00;;
757;SDS011;363;48.764;9.172;2023-05-02T09:19:08;19.10;;;17.30;;
757;SDS011;363;48.764;9.172;2023-05-02T09:21:38;20.00;;;16.43;;
757;SDS011;363;48.764;9.172;2023-05-02T09:24:14;18.25;;;16.50;;
757;SDS011;363;48.764;9.172;2023-05-02T09:26:57;18.23;;;16.42;;
757;SDS011;363;48.764;9.172;2023-05-02T09:29:25;18.70;;;17.00;;
757;SDS011;363;48.764;9.172;2023-05-02T09:31:51;18.08;;;16.42;;
757;SDS011;363;48.764;9.172;2023-05-02T09:34:17;19.23;;;17.33;;
757;SDS011;363;48.764;9.172;2023-05-02T09:36:49;18.67;;;16.77;;
757;SDS011;363;48.764;9.172;2023-05-02T09:39:19;23.70;;;21.17;;
757;SDS011;363;48.764;9.172;2023-05-02T09:41:55;20.38;;;18.30;;
757;SDS011;363;48.764;9.172;2023-05-02T09:44:26;17.15;;;15.50;;
757;SDS011;363;48.764;9.172;2023-05-02T09:47:00;16.70;;;15.15;;
757;SDS011;363;48.764;9.172;2023-05-02T09:49:42;18.17;;;16.47;;
757;SDS011;363;48.764;9.172;2023-05-02T09:52:09;17.90;;;16.20;;
757;SDS011;363;48.764;9.172;2023-05-02T09:54:36;16.73;;;15.13;;
757;SDS011;363;48.764;9.172;2023-05-02T09:57:02;16.43;;;14.83;;
757;SDS011;363;48.764;9.172;2023-05-02T09:59:28;18.23;;;16.63;;
757;SDS011;363;48.764;9.172;2023-05-02T10:02:01;16.43;;;14.90;;
757;SDS011;363;48.764;9.172;2023-05-02T10:04:29;17.33;;;15.83;;
757;SDS011;363;48.764;9.172;2023-05-02T10:06:56;18.33;;;16.70;;
757;SDS011;363;48.764;9.172;2023-05-02T10:09:22;16.73;;;15.27;;
757;SDS011;363;48.764;9.172;2023-05-02T10:11:51;16.93;;;15.43;;
757;SDS011;363;48.764;9.172;2023-05-02T10:14:22;19.07;;;17.37;;
757;SDS011;363;48.764;9.172;2023-05-02T10:17:00;19.42;;;17.63;;
757;SDS011;363;48.764;9.172;2023-05-02T10:22:46;17.00;;;15.40;;
757;SDS011;363;48.764;9.172;2023-05-02T10:25:14;18.58;;;16.60;;
757;SDS011;363;48.764;9.172;2023-05-02T10:27:40;18.63;;;16.70;;
757;SDS011;363;48.764;9.172;2023-05-02T10:30:06;18.43;;;16.83;;
757;SDS011;363;48.764;9.172;2023-05-02T10:32:33;17.80;;;16.17;;
757;SDS011;363;48.764;9.172;2023-05-02T10:35:02;17.43;;;15.73;;
757;SDS011;363;48.764;9.172;2023-05-02T10:37:29;17.73;;;16.15;;
757;SDS011;363;48.764;9.172;2023-05-02T10:40:00;18.85;;;17.17;;
757;SDS011;363;48.764;9.172;2023-05-02T10:42:26;17.50;;;15.90;;
757;SDS011;363;48.764;9.172;2023-05-02T10:44:52;18.07;;;16.33;;
757;SDS011;363;48.764;9.172;2023-05-02T10:47:19;17.03;;;15.33;;
757;SDS011;363;48.764;9.172;2023-05-02T10:52:32;13.20;;;12.10;;
757;SDS011;363;48.764;9.172;2023-05-02T10:55:21;14.70;;;13.30;;
757;SDS011;363;48.764;9.172;2023-05-02T11:00:29;15.13;;;13.68;;
757;SDS011;363;48.764;9.172;2023-05-02T11:02:56;14.48;;;13.10;;
757;SDS011;363;48.764;9.172;2023-05-02T11:05:22;14.03;;;12.73;;
757;SDS011;363;48.764;9.172;2023-05-02T11:07:49;14.20;;;13.00;;
757;SDS011;363;48.764;9.172;2023-05-02T11:10:34;14.47;;;13.23;;
757;SDS011;363;48.764;9.172;2023-05-02T11:13:00;14.03;;;12.73;;
757;SDS011;363;48.764;9.172;2023-05-02T11:20:26;13.90;;;12.60;;
757;SDS011;363;48.764;9.172;2023-05-02T11:22:53;13.53;;;12.33;;
757;SDS011;363;48.764;9.172;2023-05-02T11:25:36;12.03;;;11.03;;
757;SDS011;363;48.764;9.172;2023-05-02T11:28:05;14.77;;;13.30;;
757;SDS011;363;48.764;9.172;2023-05-02T11:30:35;15.40;;;14.00;;
757;SDS011;363;48.764;9.172;2023-05-02T11:35:31;16.40;;;14.73;;
757;SDS011;363;48.764;9.172;2023-05-02T11:38:18;15.15;;;13.75;;
757;SDS011;363;48.764;9.172;2023-05-02T11:40:48;15.40;;;14.07;;
757;SDS011;363;48.764;9.172;2023-05-02T11:43:22;13.63;;;12.43;;
757;SDS011;363;48.764;9.172;2023-05-02T11:45:49;14.57;;;13.27;;
757;SDS011;363;48.764;9.172;2023-05-02T11:48:17;15.90;;;14.50;;
757;SDS011;363;48.764;9.172;2023-05-02T11:50:44;15.02;;;13.68;;
757;SDS011;363;48.764;9.172;2023-05-02T11:53:12;16.58;;;15.02;;
757;SDS011;363;48.764;9.172;2023-05-02T11:55:49;16.67;;;14.97;;
757;SDS011;363;48.764;9.172;2023-05-02T11:58:18;18.35;;;16.65;;
757;SDS011;363;48.764;9.172;2023-05-02T12:00:46;18.75;;;17.00;;
757;SDS011;363;48.764;9.172;2023-05-02T12:03:22;16.92;;;15.32;;
757;SDS011;363;48.764;9.172;2023-05-02T12:05:51;16.63;;;15.10;;
757;SDS011;363;48.764;9.172;2023-05-02T12:08:18;18.50;;;16.60;;
757;SDS011;363;48.764;9.172;2023-05-02T12:10:45;19.33;;;17.42;;
757;SDS011;363;48.764;9.172;2023-05-02T12:13:10;17.40;;;15.80;;
757;SDS011;363;48.764;9.172;2023-05-02T12:15:36;17.42;;;15.63;;
757;SDS011;363;48.764;9.172;2023-05-02T12:18:02;16.87;;;15.37;;
757;SDS011;363;48.764;9.172;2023-05-02T12:20:28;17.40;;;15.80;;
757;SDS011;363;48.764;9.172;2023-05-02T12:22:53;18.87;;;17.00;;
757;SDS011;363;48.764;9.172;2023-05-02T12:25:19;18.83;;;16.93;;
757;SDS011;363;48.764;9.172;2023-05-02T12:27:58;17.15;;;15.35;;
757;SDS011;363;48.764;9.172;2023-05-02T12:30:25;17.75;;;15.95;;
757;SDS011;363;48.764;9.172;2023-05-02T12:32:54;19.10;;;17.20;;
757;SDS011;363;48.764;9.172;2023-05-02T12:35:25;19.48;;;17.58;;
757;SDS011;363;48.764;9.172;2023-05-02T12:37:52;18.60;;;16.80;;
757;SDS011;363;48.764;9.172;2023-05-02T12:40:18;21.50;;;19.40;;
757;SDS011;363;48.764;9.172;2023-05-02T12:42:57;20.87;;;18.77;;
757;SDS011;363;48.764;9.172;2023-05-02T12:45:30;19.98;;;17.90;;
757;SDS011;363;48.764;9.172;2023-05-02T12:50:55;19.85;;;17.75;;
757;SDS011;363;48.764;9.172;2023-05-02T12:53:37;19.77;;;17.73;;
757;SDS011;363;48.764;9.172;2023-05-02T12:56:07;21.25;;;19.20;;
757;SDS011;363;48.764;9.172;2023-05-02T12:58:41;21.63;;;19.30;;
757;SDS011;363;48.764;9.172;2023-05-02T13:01:12;19.38;;;17.48;;
757;SDS011;363;48.764;9.172;2023-05-02T13:03:39;18.40;;;16.50;;
757;SDS011;363;48.764;9.172;2023-05-02T13:06:06;19.95;;;17.83;;
757;SDS011;363;48.764;9.172;2023-05-02T13:08:32;18.43;;;16.53;;
757;SDS011;363;48.764;9.172;2023-05-02T13:10:58;19.73;;;17.70;;
757;SDS011;363;48.764;9.172;2023-05-02T13:13:24;18.30;;;16.60;;
757;SDS011;363;48.764;9.172;2023-05-02T13:15:50;18.13;;;15.83;;
757;SDS011;363;48.764;9.172;2023-05-02T13:18:16;19.67;;;17.67;;
757;SDS011;363;48.764;9.172;2023-05-02T13:20:42;20.03;;;17.57;;
757;SDS011;363;48.764;9.172;2023-05-02T13:23:07;17.80;;;16.07;;
757;SDS011;363;48.764;9.172;2023-05-02T13:25:33;19.50;;;17.07;;
757;SDS011;363;48.764;9.172;2023-05-02T13:27:59;17.35;;;15.23;;
757;SDS011;363;48.764;9.172;2023-05-02T13:30:24;16.43;;;14.80;;
757;SDS011;363;48.764;9.172;2023-05-02T13:32:50;17.17;;;15.40;;
757;SDS011;363;48.764;9.172;2023-05-02T13:35:16;17.30;;;15.50;;
757;SDS011;363;48.764;9.172;2023-05-02T13:37:42;19.03;;;17.13;;
757;SDS011;363;48.764;9.172;2023-05-02T13:40:08;17.37;;;15.60;;
757;SDS011;363;48.764;9.172;2023-05-02T13:42:34;17.98;;;15.30;;
757;SDS011;363;48.764;9.172;2023-05-02T13:45:00;16.77;;;14.50;;
757;SDS011;363;48.764;9.172;2023-05-02T13:47:29;17.20;;;15.50;;
757;SDS011;363;48.764;9.172;2023-05-02T13:49:54;17.33;;;15.43;;
757;SDS011;363;48.764;9.172;2023-05-02T13:52:20;16.93;;;15.23;;
757;SDS011;363;48.764;9.172;2023-05-02T13:54:46;15.90;;;14.30;;
757;SDS011;363;48.764;9.172;2023-05-02T13:57:11;15.13;;;13.50;;
757;SDS011;363;48.764;9.172;2023-05-02T13:59:37;16.83;;;15.03;;
757;SDS011;363;48.764;9.172;2023-05-02T14:02:03;16.03;;;14.43;;
757;SDS011;363;48.764;9.172;2023-05-02T14:04:28;15.90;;;14.23;;
757;SDS011;363;48.764;9.172;2023-05-02T14:06:54;16.70;;;15.10;;
757;SDS011;363;48.764;9.172;2023-05-02T14:09:19;14.80;;;13.30;;
757;SDS011;363;48.764;9.172;2023-05-02T14:11:45;18.23;;;14.60;;
757;SDS011;363;48.764;9.172;2023-05-02T14:14:12;15.68;;;13.80;;
757;SDS011;363;48.764;9.172;2023-05-02T14:16:38;13.87;;;12.47;;
757;SDS011;363;48.764;9.172;2023-05-02T14:19:04;15.70;;;14.20;;
757;SDS011;363;48.764;9.172;2023-05-02T14:21:29;13.70;;;12.47;;
757;SDS011;363;48.764;9.172;2023-05-02T14:23:56;15.15;;;12.05;;
757;SDS011;363;48.764;9.172;2023-05-02T14:26:22;12.23;;;10.15;;
757;SDS011;363;48.764;9.172;2023-05-02T14:28:47;11.57;;;10.47;;
757;SDS011;363;48.764;9.172;2023-05-02T14:31:13;9.87;;;8.80;;
757;SDS011;363;48.764;9.172;2023-05-02T14:33:39;10.30;;;9.30;;
757;SDS011;363;48.764;9.172;2023-05-02T14:36:04;11.63;;;10.47;;
757;SDS011;363;48.764;9.172;2023-05-02T14:38:31;12.15;;;10.45;;
757;SDS011;363;48.764;9.172;2023-05-02T14:40:57;11.03;;;9.87;;
757;SDS011;363;48.764;9.172;2023-05-02T14:43:22;9.20;;;8.40;;
757;SDS011;363;48.764;9.172;2023-05-02T14:45:48;9.20;;;8.30;;
757;SDS011;363;48.764;9.172;2023-05-02T14:48:14;9.87;;;8.87;;
757;SDS011;363;48.764;9.172;2023-05-02T14:50:41;8.30;;;7.50;;
757;SDS011;363;48.764;9.172;2023-05-02T14:53:07;9.35;;;7.82;;
757;SDS011;363;48.764;9.172;2023-05-02T14:55:36;8.60;;;7.70;;
757;SDS011;363;48.764;9.172;2023-05-02T14:58:05;8.82;;;8.00;;
757;SDS011;363;48.764;9.172;2023-05-02T15:00:34;8.98;;;8.02;;
757;SDS011;363;48.764;9.172;2023-05-02T15:03:04;10.00;;;9.00;;
757;SDS011;363;48.764;9.172;2023-05-02T15:05:30;9.48;;;8.38;;
757;SDS011;363;48.764;9.172;2023-05-02T15:07:56;8.90;;;8.00;;
757;SDS011;363;48.764;9.172;2023-05-02T15:10:22;10.20;;;8.87;;
757;SDS011;363;48.764;9.172;2023-05-02T15:12:48;9.27;;;8.37;;
757;SDS011;363;48.764;9.172;2023-05-02T15:15:17;8.43;;;7.63;;
757;SDS011;363;48.764;9.172;2023-05-02T15:17:43;11.95;;;9.70;;
757;SDS011;363;48.764;9.172;2023-05-02T15:20:09;10.10;;;9.00;;
757;SDS011;363;48.764;9.172;2023-05-02T15:22:36;10.55;;;9.43;;
757;SDS011;363;48.764;9.172;2023-05-02T15:25:01;11.20;;;9.63;;
757;SDS011;363;48.764;9.172;2023-05-02T15:27:27;11.07;;;9.97;;
757;SDS011;363;48.764;9.172;2023-05-02T15:29:53;9.67;;;8.67;;
757;SDS011;363;48.764;9.172;2023-05-02T15:32:18;9.47;;;8.43;;
757;SDS011;363;48.764;9.172;2023-05-02T15:34:45;9.30;;;8.30;;
757;SDS011;363;48.764;9.172;2023-05-02T15:37:11;10.80;;;8.37;;
757;SDS011;363;48.764;9.172;2023-05-02T15:39:36;8.37;;;7.50;;
757;SDS011;363;48.764;9.172;2023-05-02T15:42:02;7.93;;;7.13;;
757;SDS011;363;48.764;9.172;2023-05-02T15:44:29;9.77;;;8.73;;
757;SDS011;363;48.764;9.172;2023-05-02T15:47:01;10.13;;;9.13;;
757;SDS011;363;48.764;9.172;2023-05-02T15:49:27;7.80;;;7.00;;
757;SDS011;363;48.764;9.172;2023-05-02T15:51:57;8.63;;;7.72;;
757;SDS011;363;48.764;9.172;2023-05-02T15:54:23;9.05;;;5.97;;
757;SDS011;363;48.764;9.172;2023-05-02T15:56:49;7.80;;;6.43;;
757;SDS011;363;48.764;9.172;2023-05-02T15:59:14;9.30;;;7.50;;
757;SDS011;363;48.764;9.172;2023-05-02T16:01:40;6.80;;;6.10;;
757;SDS011;363;48.764;9.172;2023-05-02T16:04:05;6.00;;;5.40;;
757;SDS011;363;48.764;9.172;2023-05-02T16:06:33;5.82;;;5.32;;
757;SDS011;363;48.764;9.172;2023-05-02T16:09:00;6.20;;;5.60;;
757;SDS011;363;48.764;9.172;2023-05-02T16:11:26;5.57;;;4.80;;
757;SDS011;363;48.764;9.172;2023-05-02T16:13:51;6.20;;;4.90;;